Doss, Texas
Current Conditions -  °F | °C
As of 2:15 PM on Wednesday 28 Jan 2015 (Local Time) from KT82 Reporting Station
Clear Clear  
Wind Chill: 77°   Ceiling: Unl
Heat Index: 77°   Visibility: 10mi
Dew Point: 35°   Wind: 17mph
Humidity: 22%   Direction: 230°SW
Pressure: 30.1"   Gusts: 23mph
Location:  30.45°N, 99.13°W
Report Text: KT82 282015Z AUTO 23015G20KT 10SM CLR 25/02 A3010 RMK AO2 T02500015
Loading
Personal Weather Stations






























Interactive Weather Map New forecast layout! Learn more

10-Day Weather Forecast

Advertisements
Track Severe Weather on mobile